Time;durP1;ratioP1;P1;durP2;ratioP2;P2;SDS_P1;SDS_P2;PMS_P1;PMS_P2;Temp;Humidity;BMP_temperature;BMP_pressure;BME280_temperature;BME280_humidity;BME280_pressure;Samples;Min_cycle;Max_cycle;Signal;HPM_P1;HPM_P2
2022/01/09 00:00:42;;;;;;;47.15;16.30;;;20.70;52.80;;;;;;5043800;28;20072;-64
2022/01/09 00:03:09;;;;;;;41.50;16.83;;;20.60;53.40;;;;;;5036499;28;20100;-64
2022/01/09 00:05:35;;;;;;;45.55;15.73;;;20.60;52.40;;;;;;5038616;28;20452;-62
2022/01/09 00:08:02;;;;;;;40.78;14.93;;;20.50;76.90;;;;;;5040615;28;20115;-63
2022/01/09 00:10:30;;;;;;;35.00;14.50;;;20.50;53.90;;;;;;5040521;28;20149;-63
2022/01/09 00:12:58;;;;;;;41.40;14.98;;;20.50;52.70;;;;;;5032996;28;20550;-73
2022/01/09 00:15:25;;;;;;;36.00;15.32;;;20.40;53.20;;;;;;5035583;28;20161;-70
2022/01/09 00:17:51;;;;;;;45.35;17.35;;;20.40;52.70;;;;;;5031403;28;20123;-63
2022/01/09 00:20:18;;;;;;;44.25;16.85;;;20.30;53.70;;;;;;5034609;28;20076;-64
2022/01/09 00:22:49;;;;;;;51.35;16.92;;;20.30;54.50;;;;;;5031149;28;20486;-65
2022/01/09 00:25:18;;;;;;;56.55;17.52;;;20.20;55.30;;;;;;5028582;28;20086;-64
2022/01/09 00:27:45;;;;;;;42.85;17.25;;;20.10;55.40;;;;;;5032805;28;20123;-64
2022/01/09 00:30:13;;;;;;;50.03;16.67;;;20.00;55.80;;;;;;5044110;28;20070;-64
2022/01/09 00:32:40;;;;;;;51.40;17.55;;;19.80;56.30;;;;;;5033426;28;20082;-65
2022/01/09 00:35:08;;;;;;;51.05;18.05;;;19.70;56.30;;;;;;5031971;28;21331;-69
2022/01/09 00:37:35;;;;;;;45.47;18.27;;;19.60;56.80;;;;;;5045506;28;20164;-70
2022/01/09 00:40:01;;;;;;;50.58;18.67;;;19.50;56.70;;;;;;5037442;28;20092;-63
2022/01/09 00:42:28;;;;;;;47.28;19.27;;;19.40;57.80;;;;;;5039294;28;20105;-64
2022/01/09 00:44:54;;;;;;;56.95;19.52;;;19.20;58.10;;;;;;5032748;28;20077;-65
2022/01/09 00:47:20;;;;;;;45.20;17.50;;;19.10;58.60;;;;;;5030785;28;20492;-66
2022/01/09 00:49:47;;;;;;;46.42;19.13;;;19.00;58.80;;;;;;5045529;28;20113;-63
2022/01/09 00:52:13;;;;;;;54.65;18.58;;;18.90;59.10;;;;;;5030408;28;20086;-62
2022/01/09 00:54:40;;;;;;;61.40;19.10;;;18.80;59.70;;;;;;5046535;28;20131;-67
2022/01/09 00:57:06;;;;;;;47.05;17.73;;;18.70;59.70;;;;;;5047739;28;20069;-65
2022/01/09 00:59:32;;;;;;;61.03;20.33;;;18.50;59.60;;;;;;5030138;28;20454;-64
2022/01/09 01:01:59;;;;;;;54.80;21.15;;;18.40;59.70;;;;;;5034282;28;20098;-63
2022/01/09 01:04:26;;;;;;;62.38;21.73;;;18.40;60.00;;;;;;5032221;28;20078;-63
2022/01/09 01:06:52;;;;;;;68.53;22.60;;;18.20;60.30;;;;;;5033916;28;20539;-66
2022/01/09 01:09:23;;;;;;;;;;;18.10;60.90;;;;;;5034179;28;20625;-71
2022/01/09 01:11:50;;;;;;;69.63;23.83;;;18.00;61.50;;;;;;5037946;28;19977;-65
2022/01/09 01:14:21;;;;;;;62.75;21.70;;;17.90;63.10;;;;;;5031287;28;20090;-72
2022/01/09 01:16:48;;;;;;;63.20;22.98;;;17.80;64.30;;;;;;5032700;28;20066;-63
2022/01/09 01:19:15;;;;;;;54.22;22.08;;;17.70;64.80;;;;;;5038236;28;20066;-65
2022/01/09 01:21:42;;;;;;;51.75;19.38;;;17.60;65.40;;;;;;5031325;28;20088;-67
2022/01/09 01:24:08;;;;;;;62.00;21.38;;;17.60;65.60;;;;;;5032383;28;20172;-65
2022/01/09 01:26:35;;;;;;;55.58;20.38;;;17.50;65.90;;;;;;5034091;28;20104;-63
2022/01/09 01:29:01;;;;;;;;;;;17.40;66.20;;;;;;5041271;28;20091;-67
2022/01/09 01:31:27;;;;;;;60.03;21.52;;;17.30;66.90;;;;;;5050550;28;19973;-65
2022/01/09 01:33:53;;;;;;;;;;;17.30;67.20;;;;;;5038038;28;20090;-69
2022/01/09 01:36:20;;;;;;;64.30;21.95;;;17.20;68.20;;;;;;5046066;28;20409;-68
2022/01/09 01:38:46;;;;;;;61.78;22.95;;;17.10;69.30;;;;;;5046542;28;20416;-70
2022/01/09 01:41:13;;;;;;;62.20;22.33;;;17.10;69.80;;;;;;5050022;28;20078;-63
2022/01/09 01:43:40;;;;;;;55.22;22.73;;;17.00;70.00;;;;;;5034025;28;20662;-66
2022/01/09 01:46:06;;;;;;;;;;;16.90;70.20;;;;;;5041451;28;20093;-65
2022/01/09 01:48:32;;;;;;;75.55;24.27;;;16.80;70.40;;;;;;5033575;28;20040;-67
2022/01/09 01:50:59;;;;;;;63.47;22.75;;;16.70;70.60;;;;;;5039924;28;20573;-66
2022/01/09 01:53:26;;;;;;;65.93;23.65;;;16.70;71.20;;;;;;5034016;28;20069;-65
2022/01/09 01:55:55;;;;;;;66.20;25.38;;;16.60;71.70;;;;;;5044980;28;20537;-66
2022/01/09 01:58:26;;;;;;;68.63;24.80;;;16.60;72.20;;;;;;5035523;28;20092;-66
2022/01/09 02:00:53;;;;;;;70.05;25.50;;;16.50;72.60;;;;;;5049944;28;20074;-63
2022/01/09 02:03:19;;;;;;;67.30;25.00;;;16.50;73.00;;;;;;5041851;28;20093;-68
2022/01/09 02:05:46;;;;;;;65.68;24.52;;;16.40;73.20;;;;;;5038255;28;20090;-69
2022/01/09 02:08:13;;;;;;;66.15;24.52;;;16.30;73.60;;;;;;5038629;28;20428;-68
2022/01/09 02:10:44;;;;;;;69.32;27.05;;;16.30;73.80;;;;;;5036588;28;20547;-67
2022/01/09 02:13:11;;;;;;;69.07;25.88;;;16.20;74.10;;;;;;5039108;28;20204;-65
2022/01/09 02:15:45;;;;;;;77.10;29.63;;;16.10;74.90;;;;;;5040199;28;20084;-67
2022/01/09 02:18:15;;;;;;;68.28;27.40;;;16.10;75.90;;;;;;5033497;28;20098;-67
2022/01/09 02:20:42;;;;;;;72.05;28.40;;;16.10;76.00;;;;;;5038027;28;20164;-68
2022/01/09 02:23:10;;;;;;;76.97;29.85;;;16.00;75.90;;;;;;5048780;28;20123;-67
2022/01/09 02:25:38;;;;;;;80.00;31.13;;;16.00;75.60;;;;;;5036096;28;20080;-70
2022/01/09 02:28:06;;;;;;;85.38;32.97;;;15.80;76.40;;;;;;5034046;28;20070;-72
2022/01/09 02:30:33;;;;;;;80.05;33.78;;;15.80;77.20;;;;;;5036464;28;20081;-68
2022/01/09 02:33:05;;;;;;;80.05;31.48;;;15.80;77.90;;;;;;5035673;28;20096;-64
2022/01/09 02:35:32;;;;;;;77.68;33.13;;;15.70;77.80;;;;;;5035130;28;20436;-68
2022/01/09 02:38:00;;;;;;;84.07;34.03;;;15.70;77.50;;;;;;5035181;28;20077;-68
2022/01/09 02:40:27;;;;;;;68.68;33.40;;;15.60;78.10;;;;;;5045405;28;20424;-69
2022/01/09 02:42:54;;;;;;;82.95;35.60;;;15.60;77.70;;;;;;5034902;28;20149;-69
2022/01/09 02:45:23;;;;;;;83.00;35.72;;;15.50;78.10;;;;;;5036506;28;20528;-67
2022/01/09 02:47:52;;;;;;;84.25;36.25;;;15.50;78.60;;;;;;5035276;28;20528;-67
2022/01/09 02:52:54;;;;;;;102.10;37.55;;;15.40;79.20;;;;;;5033552;28;20092;-69
2022/01/09 02:55:22;;;;;;;83.40;34.60;;;15.40;80.40;;;;;;5036146;28;20464;-69
2022/01/09 02:57:52;;;;;;;94.80;38.88;;;15.40;80.30;;;;;;5036985;28;20589;-67
2022/01/09 03:00:21;;;;;;;100.75;36.92;;;15.30;80.20;;;;;;5035640;28;20088;-66
2022/01/09 03:02:47;;;;;;;100.72;38.63;;;15.30;80.80;;;;;;5035925;28;20182;-67
2022/01/09 03:05:14;;;;;;;94.95;37.70;;;15.20;81.00;;;;;;5034222;28;20082;-66
2022/01/09 03:07:43;;;;;;;97.35;38.78;;;15.20;81.80;;;;;;5035416;28;20077;-68
2022/01/09 03:10:11;;;;;;;101.63;41.63;;;15.20;82.00;;;;;;5035152;28;20070;-74
2022/01/09 03:12:38;;;;;;;109.00;44.47;;;15.10;82.00;;;;;;5036126;28;20113;-66
2022/01/09 03:15:06;;;;;;;114.72;48.67;;;15.10;82.30;;;;;;5038748;28;20539;-66
2022/01/09 03:17:33;;;;;;;142.57;52.72;;;15.10;83.20;;;;;;5018907;28;20519;-66
2022/01/09 03:20:00;;;;;;;163.77;53.97;;;15.10;83.90;;;;;;5033804;28;20092;-72
2022/01/09 03:22:26;;;;;;;;;;;15.10;83.20;;;;;;5040224;28;20077;-67
2022/01/09 03:24:53;;;;;;;137.73;51.50;;;15.00;84.20;;;;;;5047335;28;20020;-66
2022/01/09 03:27:19;;;;;;;153.95;56.55;;;14.70;96.30;;;;;;5044570;28;20160;-68
2022/01/09 03:29:45;;;;;;;;;;;14.90;84.40;;;;;;5037896;28;20440;-67
2022/01/09 03:32:11;;;;;;;180.48;68.22;;;14.80;84.40;;;;;;5034588;28;19977;-67
2022/01/09 03:34:38;;;;;;;162.95;63.50;;;14.80;85.10;;;;;;5032196;28;20070;-71
2022/01/09 03:37:06;;;;;;;185.85;67.18;;;14.80;85.00;;;;;;5034951;28;20074;-71
2022/01/09 03:39:32;;;;;;;167.40;68.10;;;14.70;85.50;;;;;;5037528;28;20165;-68
2022/01/09 03:41:59;;;;;;;;;;;14.70;86.10;;;;;;5033307;28;20532;-67
2022/01/09 03:44:26;;;;;;;177.07;73.87;;;14.70;86.30;;;;;;5033073;28;20067;-66
2022/01/09 03:46:53;;;;;;;180.27;77.72;;;14.70;87.20;;;;;;5032899;28;20074;-68
2022/01/09 03:49:20;;;;;;;190.07;80.35;;;14.60;87.70;;;;;;5032683;28;20519;-64
2022/01/09 03:51:50;;;;;;;175.82;71.95;;;14.60;87.40;;;;;;5034319;28;20117;-66
2022/01/09 03:54:20;;;;;;;187.55;77.75;;;14.60;87.70;;;;;;5046702;28;20649;-67
2022/01/09 03:56:47;;;;;;;180.43;75.47;;;14.50;88.10;;;;;;5045753;28;20074;-68
2022/01/09 03:59:13;;;;;;;183.38;76.43;;;14.50;89.00;;;;;;5039015;28;20078;-67
2022/01/09 04:01:40;;;;;;;166.68;73.32;;;14.50;89.00;;;;;;5045036;28;20164;-68
2022/01/09 04:04:06;;;;;;;;;;;14.40;89.10;;;;;;5035545;28;20170;-67
2022/01/09 04:06:32;;;;;;;174.60;76.65;;;14.30;89.50;;;;;;5034585;28;20346;-66
2022/01/09 04:09:06;;;;;;;;;;;14.20;89.70;;;;;;5032778;28;20612;-67
2022/01/09 04:11:37;;;;;;;170.75;74.70;;;14.20;90.10;;;;;;5035588;28;20080;-66
2022/01/09 04:14:04;;;;;;;152.60;68.85;;;14.20;90.40;;;;;;5032847;28;20944;-66
2022/01/09 04:16:31;;;;;;;148.52;66.13;;;14.10;90.70;;;;;;5048219;28;20489;-65
2022/01/09 04:18:57;;;;;;;148.48;64.30;;;14.10;90.80;;;;;;5033247;28;20065;-66
2022/01/09 04:21:23;;;;;;;;;;;14.00;90.80;;;;;;5041923;28;20078;-69
2022/01/09 04:23:49;;;;;;;169.30;74.50;;;14.00;90.90;;;;;;5034815;28;19957;-67
2022/01/09 04:26:17;;;;;;;172.00;69.82;;;14.00;91.00;;;;;;5036481;28;20077;-66
2022/01/09 04:28:44;;;;;;;177.00;70.20;;;13.90;91.20;;;;;;5034931;28;20082;-67
2022/01/09 04:31:10;;;;;;;146.45;62.53;;;13.90;91.30;;;;;;5035475;28;20120;-67
2022/01/09 04:33:37;;;;;;;137.63;62.17;;;13.90;91.40;;;;;;5031900;28;20078;-67
2022/01/09 04:36:03;;;;;;;161.30;64.53;;;13.80;91.50;;;;;;5035010;28;20077;-69
2022/01/09 04:38:29;;;;;;;153.05;63.53;;;13.80;91.70;;;;;;5038878;28;20094;-68
2022/01/09 04:40:56;;;;;;;165.43;65.68;;;13.80;91.70;;;;;;5044030;28;20118;-70
2022/01/09 04:43:22;;;;;;;;;;;13.80;92.00;;;;;;5035167;28;20467;-69
2022/01/09 04:45:49;;;;;;;165.50;64.22;;;13.80;92.20;;;;;;5034118;28;19958;-68
2022/01/09 04:48:16;;;;;;;164.93;62.75;;;13.80;92.60;;;;;;5033249;28;20108;-66
2022/01/09 04:50:44;;;;;;;;;;;13.70;92.40;;;;;;5042035;28;20092;-67
2022/01/09 04:53:11;;;;;;;157.25;64.05;;;13.70;92.50;;;;;;5036234;28;21137;-68
2022/01/09 04:55:45;;;;;;;172.38;63.40;;;13.70;92.60;;;;;;5047999;28;20081;-67
2022/01/09 04:58:11;;;;;;;163.88;63.83;;;13.60;92.70;;;;;;5034679;28;20097;-66
2022/01/09 05:00:39;;;;;;;;;;;13.60;92.80;;;;;;5041668;28;20531;-67
2022/01/09 05:03:06;;;;;;;176.60;68.45;;;13.70;92.80;;;;;;5035803;28;19980;-67
2022/01/09 05:05:33;;;;;;;177.70;66.38;;;13.60;92.90;;;;;;5039439;28;20093;-65
2022/01/09 05:08:00;;;;;;;175.73;66.28;;;13.60;93.20;;;;;;5039172;28;20782;-65
2022/01/09 05:10:26;;;;;;;;;;;13.50;93.50;;;;;;5043631;28;20156;-66
2022/01/09 05:12:52;;;;;;;171.70;65.47;;;13.50;93.60;;;;;;5040646;28;20009;-67
2022/01/09 05:15:19;;;;;;;;;;;13.50;93.80;;;;;;5037717;28;20591;-67
2022/01/09 05:17:46;;;;;;;209.50;71.47;;;13.40;94.00;;;;;;5049383;28;19961;-67
2022/01/09 05:20:13;;;;;;;168.27;71.82;;;13.50;94.40;;;;;;5035089;28;20074;-66
2022/01/09 05:22:39;;;;;;;217.95;75.65;;;13.50;94.40;;;;;;5040477;28;20086;-67
2022/01/09 05:25:06;;;;;;;;;;;13.40;93.90;;;;;;5036195;28;20081;-65
2022/01/09 05:27:34;;;;;;;190.27;72.28;;;13.40;94.10;;;;;;5036695;28;19958;-66
2022/01/09 05:30:00;;;;;;;214.80;77.53;;;13.40;94.50;;;;;;5038137;28;20070;-66
2022/01/09 05:32:27;;;;;;;222.82;78.30;;;13.30;94.40;;;;;;5044936;28;20143;-65
2022/01/09 05:34:53;;;;;;;;;;;13.30;95.10;;;;;;5047596;28;20077;-66
2022/01/09 05:37:19;;;;;;;226.20;75.57;;;13.20;95.00;;;;;;5039149;28;20031;-67
2022/01/09 05:39:45;;;;;;;;;;;13.20;95.00;;;;;;5030607;28;20173;-66
2022/01/09 05:42:13;;;;;;;206.20;77.50;;;13.20;94.80;;;;;;5047980;28;20032;-67
2022/01/09 05:44:40;;;;;;;216.07;81.50;;;13.10;94.90;;;;;;5042596;28;20761;-66
2022/01/09 05:47:07;;;;;;;219.43;82.80;;;13.10;95.00;;;;;;5035457;28;20524;-66
2022/01/09 05:49:33;;;;;;;;;;;13.10;95.00;;;;;;5033294;28;20164;-66
2022/01/09 05:51:59;;;;;;;198.50;78.05;;;13.10;95.10;;;;;;5046169;28;19976;-64
2022/01/09 05:54:26;;;;;;;196.65;77.25;;;13.10;95.30;;;;;;5038799;28;20216;-66
2022/01/09 05:56:52;;;;;;;;;;;13.10;95.30;;;;;;5036555;28;20438;-65
2022/01/09 05:59:19;;;;;;;207.43;79.10;;;13.00;95.30;;;;;;5048722;28;19965;-68
2022/01/09 06:01:46;;;;;;;205.23;77.00;;;13.00;95.60;;;;;;5045121;28;20104;-66
2022/01/09 06:04:13;;;;;;;213.93;79.78;;;13.00;96.00;;;;;;5048445;28;20070;-66
2022/01/09 06:06:39;;;;;;;202.23;76.68;;;13.00;95.90;;;;;;5036309;28;20088;-65
2022/01/09 06:09:07;;;;;;;;;;;12.90;96.00;;;;;;5034290;28;20568;-66
2022/01/09 06:11:34;;;;;;;204.82;74.25;;;12.90;96.10;;;;;;5035206;28;20017;-66
2022/01/09 06:14:00;;;;;;;;;;;12.90;96.10;;;;;;5034574;28;20081;-66
2022/01/09 06:16:26;;;;;;;210.95;75.78;;;12.90;96.20;;;;;;5034456;28;20351;-63
2022/01/09 06:18:52;;;;;;;;;;;12.80;96.80;;;;;;5036832;28;20078;-66
2022/01/09 06:21:19;;;;;;;213.60;80.78;;;12.80;96.60;;;;;;5035048;28;19965;-65
2022/01/09 06:23:45;;;;;;;;;;;12.80;96.60;;;;;;5045768;28;20554;-66
2022/01/09 06:26:11;;;;;;;182.60;76.45;;;12.80;96.70;;;;;;5034632;28;19961;-67
2022/01/09 06:28:37;;;;;;;;;;;12.80;97.10;;;;;;5035551;28;20074;-66
2022/01/09 06:31:04;;;;;;;219.60;79.32;;;12.80;96.90;;;;;;5033293;28;19973;-66
2022/01/09 06:33:30;;;;;;;219.68;82.65;;;12.70;97.00;;;;;;5030630;28;20413;-66
2022/01/09 06:35:56;;;;;;;;;;;12.70;97.00;;;;;;5035340;28;20085;-66
2022/01/09 06:38:22;;;;;;;203.95;80.43;;;12.70;97.20;;;;;;5045529;28;19961;-67
2022/01/09 06:40:48;;;;;;;;;;;12.70;97.50;;;;;;5045392;28;20084;-67
2022/01/09 06:43:15;;;;;;;221.98;85.43;;;12.70;97.60;;;;;;5048555;28;20454;-66
2022/01/09 06:45:41;;;;;;;208.30;81.15;;;12.70;97.60;;;;;;5034601;28;20098;-66
2022/01/09 06:48:07;;;;;;;;;;;12.70;97.60;;;;;;5042273;28;20078;-66
2022/01/09 06:50:34;;;;;;;219.32;85.00;;;12.70;97.50;;;;;;5037407;28;20350;-66
2022/01/09 06:53:00;;;;;;;;;;;12.70;97.60;;;;;;5032910;28;20078;-65
2022/01/09 06:55:26;;;;;;;204.88;84.20;;;12.70;97.70;;;;;;5033122;28;20399;-66
2022/01/09 06:57:54;;;;;;;203.15;82.93;;;12.70;97.80;;;;;;5035283;28;20081;-66
2022/01/09 07:00:21;;;;;;;215.95;85.22;;;12.70;97.80;;;;;;5033198;28;20522;-65
2022/01/09 07:02:48;;;;;;;219.23;87.38;;;12.70;97.80;;;;;;5035069;28;20132;-66
2022/01/09 07:05:15;;;;;;;209.85;84.50;;;12.70;97.80;;;;;;5030773;28;20516;-66
2022/01/09 07:07:42;;;;;;;217.50;86.63;;;12.60;97.70;;;;;;5034646;28;20074;-67
2022/01/09 07:10:09;;;;;;;;;;;12.60;97.60;;;;;;5046195;28;20128;-70
2022/01/09 07:12:36;;;;;;;212.63;87.97;;;12.60;97.70;;;;;;5038022;28;19982;-69
2022/01/09 07:15:04;;;;;;;212.05;89.35;;;12.50;97.80;;;;;;5037863;28;20081;-68
2022/01/09 07:17:31;;;;;;;203.82;87.85;;;12.40;98.20;;;;;;5037568;28;20081;-69
2022/01/09 07:19:57;;;;;;;224.57;89.55;;;12.40;98.30;;;;;;5044799;28;20073;-68
2022/01/09 07:22:23;;;;;;;;;;;12.40;98.30;;;;;;5033301;28;20089;-67
2022/01/09 07:24:50;;;;;;;227.00;92.05;;;12.40;98.50;;;;;;5044936;28;19988;-67
2022/01/09 07:27:16;;;;;;;;;;;12.40;98.50;;;;;;5048894;28;20131;-68
2022/01/09 07:29:42;;;;;;;227.52;94.90;;;12.40;98.20;;;;;;5046448;28;19957;-69
2022/01/09 07:32:09;;;;;;;234.07;94.07;;;12.30;98.20;;;;;;5035246;28;20098;-68
2022/01/09 07:34:35;;;;;;;;;;;12.30;98.40;;;;;;5036488;28;20086;-69
2022/01/09 07:37:01;;;;;;;218.75;90.90;;;12.30;98.40;;;;;;5039705;28;19980;-67
2022/01/09 07:39:28;;;;;;;;;;;12.30;98.40;;;;;;5045236;28;20420;-68
2022/01/09 07:41:57;;;;;;;204.77;91.05;;;12.20;98.40;;;;;;5034291;28;19989;-67
2022/01/09 07:44:24;;;;;;;227.88;89.85;;;12.30;98.50;;;;;;5045308;28;20085;-68
2022/01/09 07:46:50;;;;;;;195.13;85.68;;;12.20;98.10;;;;;;5032035;28;20203;-66
2022/01/09 07:49:16;;;;;;;;;;;12.20;97.90;;;;;;5033775;28;20161;-70
2022/01/09 07:51:44;;;;;;;170.60;78.85;;;12.20;97.70;;;;;;5038369;28;19981;-67
2022/01/09 07:54:11;;;;;;;177.52;73.18;;;12.20;97.60;;;;;;5042065;28;20066;-67
2022/01/09 07:56:37;;;;;;;184.07;73.57;;;12.20;97.10;;;;;;5039512;28;20089;-70
2022/01/09 07:59:03;;;;;;;186.43;73.03;;;12.20;97.10;;;;;;5039988;28;20550;-70
2022/01/09 08:01:30;;;;;;;184.32;75.03;;;12.30;97.00;;;;;;5041185;28;20546;-67
2022/01/09 08:03:56;;;;;;;;;;;12.30;96.80;;;;;;5040742;28;20086;-69
2022/01/09 08:06:22;;;;;;;158.07;73.10;;;12.30;96.80;;;;;;5037862;28;19975;-69
2022/01/09 08:08:49;;;;;;;180.30;71.32;;;12.30;96.50;;;;;;5039403;28;20331;-65
2022/01/09 08:11:17;;;;;;;;;;;12.20;96.40;;;;;;5039688;28;20089;-70
2022/01/09 08:13:43;;;;;;;166.27;74.03;;;12.20;96.30;;;;;;5040860;28;19957;-69
2022/01/09 08:16:09;;;;;;;;;;;12.20;96.50;;;;;;5040851;28;20081;-69
2022/01/09 08:18:35;;;;;;;175.27;73.32;;;12.20;96.50;;;;;;5051526;28;19957;-70
2022/01/09 08:21:02;;;;;;;168.50;74.68;;;12.20;96.80;;;;;;5039712;28;20775;-68
2022/01/09 08:23:28;;;;;;;179.48;71.95;;;12.10;96.60;;;;;;5039795;28;20515;-65
2022/01/09 08:25:54;;;;;;;;;;;12.10;97.10;;;;;;5040812;28;20508;-70
2022/01/09 08:28:21;;;;;;;167.00;76.18;;;12.10;97.10;;;;;;5038557;28;20366;-68
2022/01/09 08:30:47;;;;;;;;;;;12.00;97.20;;;;;;5041172;28;20072;-68
2022/01/09 08:33:13;;;;;;;179.02;72.30;;;11.90;97.20;;;;;;5040712;28;19957;-70
2022/01/09 08:35:39;;;;;;;;;;;11.90;97.40;;;;;;5041200;28;20104;-68
2022/01/09 08:38:06;;;;;;;181.30;71.88;;;11.90;97.40;;;;;;5041628;28;19957;-69
2022/01/09 08:40:32;;;;;;;;;;;11.80;97.20;;;;;;5041578;28;20459;-69
2022/01/09 08:42:58;;;;;;;171.32;70.38;;;11.80;97.40;;;;;;5040821;28;19981;-70
2022/01/09 08:45:24;;;;;;;;;;;11.70;97.70;;;;;;5041211;28;20073;-66
2022/01/09 08:47:51;;;;;;;156.40;65.97;;;11.70;97.60;;;;;;5038515;28;19964;-68
2022/01/09 08:50:18;;;;;;;;;;;11.70;97.50;;;;;;5028985;28;20108;-69
2022/01/09 08:52:45;;;;;;;;;;;11.70;97.50;;;;;;5040718;28;19976;-70
2022/01/09 08:55:13;;;;;;;146.83;65.40;;;11.70;97.20;;;;;;5038675;28;20346;-69
2022/01/09 08:57:40;;;;;;;152.50;62.05;;;11.60;97.00;;;;;;5041456;28;21298;-69
2022/01/09 09:00:06;;;;;;;;;;;11.60;96.80;;;;;;5040470;28;20077;-69
2022/01/09 09:02:33;;;;;;;145.70;62.03;;;11.50;97.00;;;;;;5041357;28;19974;-67
2022/01/09 09:04:59;;;;;;;;;;;11.50;97.10;;;;;;5037260;28;20529;-68
2022/01/09 09:07:25;;;;;;;150.82;64.38;;;11.50;97.20;;;;;;5038537;28;19965;-65
2022/01/09 09:09:52;;;;;;;;;;;11.50;97.30;;;;;;5041420;28;20081;-68
2022/01/09 09:12:19;;;;;;;139.45;61.67;;;11.50;97.20;;;;;;5039871;28;20867;-70
2022/01/09 09:14:46;;;;;;;134.60;60.72;;;11.40;97.20;;;;;;5040967;28;20077;-67
2022/01/09 09:17:13;;;;;;;150.20;61.03;;;11.40;97.20;;;;;;5041767;28;20839;-68
2022/01/09 09:19:40;;;;;;;134.68;60.95;;;11.40;97.00;;;;;;5037715;28;20081;-71
2022/01/09 09:22:06;;;;;;;;;;;11.40;97.20;;;;;;5039752;28;20192;-66
2022/01/09 09:24:32;;;;;;;113.63;51.95;;;11.40;96.80;;;;;;5021721;28;20044;-68
2022/01/09 09:26:59;;;;;;;106.40;47.55;;;11.30;96.30;;;;;;5040338;28;20085;-68
2022/01/09 09:29:25;;;;;;;;;;;11.30;95.80;;;;;;5039234;28;20509;-69
2022/01/09 09:31:51;;;;;;;90.70;41.95;;;11.30;95.30;;;;;;5049386;28;19973;-67
2022/01/09 09:34:17;;;;;;;;;;;11.30;94.80;;;;;;5038165;28;20155;-68
2022/01/09 09:36:44;;;;;;;92.68;41.47;;;11.30;94.40;;;;;;5040819;28;19968;-70
2022/01/09 09:39:12;;;;;;;96.15;39.85;;;11.20;94.70;;;;;;5041247;28;20076;-69
2022/01/09 09:41:41;;;;;;;76.70;33.70;;;11.20;94.20;;;;;;5038260;28;20485;-70
2022/01/09 09:44:09;;;;;;;69.40;29.20;;;11.20;93.50;;;;;;5040166;28;20149;-70
2022/01/09 09:46:37;;;;;;;62.30;28.35;;;11.10;92.60;;;;;;5028806;28;20441;-69
2022/01/09 09:49:04;;;;;;;60.55;23.27;;;11.10;92.40;;;;;;5027642;28;20181;-69
2022/01/09 09:51:31;;;;;;;42.90;20.45;;;11.10;91.20;;;;;;5045853;28;20131;-67
2022/01/09 09:53:58;;;;;;;39.22;19.73;;;11.10;90.90;;;;;;5045238;28;20070;-71
2022/01/09 09:56:25;;;;;;;42.13;17.27;;;11.00;90.60;;;;;;5051069;28;20077;-70
2022/01/09 09:58:53;;;;;;;37.72;16.73;;;11.10;90.20;;;;;;5041661;28;20165;-68
2022/01/09 10:01:36;;;;;;;42.50;16.88;;;11.00;90.00;;;;;;5044271;28;20151;-69
2022/01/09 10:04:07;;;;;;;40.03;16.95;;;11.00;90.20;;;;;;5042874;28;20084;-70
2022/01/09 10:06:48;;;;;;;38.25;13.68;;;11.00;90.10;;;;;;5042359;28;20081;-68
2022/01/09 10:09:17;;;;;;;34.78;12.75;;;11.00;89.30;;;;;;5041457;28;20074;-68
2022/01/09 10:11:45;;;;;;;30.45;11.18;;;10.90;88.20;;;;;;5041169;28;20093;-68
2022/01/09 10:14:26;;;;;;;31.70;11.70;;;10.90;87.60;;;;;;5045144;28;20152;-68
2022/01/09 10:17:25;;;;;;;29.23;10.15;;;10.90;87.10;;;;;;5041463;28;20154;-69
2022/01/09 10:20:08;;;;;;;30.25;10.65;;;10.90;87.00;;;;;;5040077;28;20618;-65
2022/01/09 10:22:47;;;;;;;27.27;10.15;;;10.90;87.00;;;;;;5040918;28;20077;-67
2022/01/09 10:25:27;;;;;;;27.80;10.50;;;10.90;87.40;;;;;;5024198;28;20172;-70
2022/01/09 10:27:58;;;;;;;27.08;11.13;;;10.90;87.80;;;;;;5042978;28;20069;-68
2022/01/09 10:30:36;;;;;;;35.58;11.05;;;10.90;88.40;;;;;;5039083;28;20074;-68
2022/01/09 10:33:13;;;;;;;24.58;10.15;;;10.90;88.50;;;;;;5041155;28;20085;-69
2022/01/09 10:35:41;;;;;;;31.65;10.25;;;10.90;88.30;;;;;;5042134;28;20168;-68
2022/01/09 10:38:22;;;;;;;28.63;10.60;;;10.90;88.80;;;;;;5042857;28;20106;-69
2022/01/09 10:41:01;;;;;;;27.55;10.77;;;10.90;89.40;;;;;;5042980;28;20085;-69
2022/01/09 10:43:41;;;;;;;22.23;10.27;;;10.80;89.50;;;;;;5042996;28;20106;-68
2022/01/09 10:46:09;;;;;;;25.98;10.82;;;10.80;89.00;;;;;;5043076;28;20078;-70
2022/01/09 10:48:38;;;;;;;29.05;11.48;;;10.80;89.60;;;;;;5039619;28;20090;-70
2022/01/09 10:51:07;;;;;;;22.52;10.85;;;10.70;89.30;;;;;;5038160;28;20104;-71
2022/01/09 10:53:35;;;;;;;31.58;10.82;;;10.80;90.20;;;;;;5024793;28;20455;-70
2022/01/09 10:56:01;;;;;;;24.23;10.50;;;10.70;90.30;;;;;;5042736;28;20579;-69
2022/01/09 10:58:28;;;;;;;26.05;11.05;;;10.70;90.10;;;;;;5042974;28;20077;-68
2022/01/09 11:01:26;;;;;;;38.55;12.48;;;10.70;90.60;;;;;;5041261;28;20086;-70
2022/01/09 11:03:54;;;;;;;30.25;11.55;;;10.70;90.70;;;;;;5025197;28;20097;-69
2022/01/09 11:06:22;;;;;;;26.20;12.55;;;10.60;90.30;;;;;;5040444;28;20082;-68
2022/01/09 11:08:50;;;;;;;28.50;14.05;;;10.60;90.40;;;;;;5039898;28;20080;-69
2022/01/09 11:13:49;;;;;;;31.10;13.25;;;10.50;90.60;;;;;;5040787;28;20082;-70
2022/01/09 11:16:37;;;;;;;36.92;13.82;;;10.50;90.70;;;;;;5040962;28;20547;-69
2022/01/09 11:19:10;;;;;;;;;;;10.40;90.70;;;;;;5031802;28;20451;-70
2022/01/09 11:21:40;;;;;;;29.60;13.80;;;10.30;90.90;;;;;;5040994;28;20035;-70
2022/01/09 11:24:43;;;;;;;44.80;13.68;;;10.30;91.20;;;;;;5042294;28;20078;-68
2022/01/09 11:27:27;;;;;;;36.38;12.75;;;10.30;91.50;;;;;;5036117;28;20077;-69
2022/01/09 11:30:05;;;;;;;34.85;12.30;;;10.30;91.20;;;;;;5038552;28;20077;-69
2022/01/09 11:32:58;;;;;;;32.13;11.85;;;10.30;91.20;;;;;;5042639;28;20095;-70
2022/01/09 11:35:58;;;;;;;31.90;12.50;;;10.30;91.00;;;;;;5042131;28;20089;-68
2022/01/09 11:38:45;;;;;;;33.55;11.68;;;10.30;91.20;;;;;;5039083;28;20520;-69
2022/01/09 11:41:25;;;;;;;33.08;10.52;;;10.20;90.90;;;;;;5040529;28;20082;-68
2022/01/09 11:44:08;;;;;;;33.17;10.88;;;10.30;91.30;;;;;;5041553;28;20188;-68
2022/01/09 11:47:10;;;;;;;34.53;10.65;;;10.30;91.80;;;;;;5040678;28;20513;-70
2022/01/09 11:49:55;;;;;;;26.70;11.05;;;10.30;91.50;;;;;;5005869;28;20131;-68
2022/01/09 11:52:27;;;;;;;46.40;12.02;;;10.30;91.40;;;;;;5004520;28;20098;-68
2022/01/09 11:54:56;;;;;;;38.55;13.82;;;10.20;91.60;;;;;;4985940;28;20157;-69
2022/01/09 11:57:47;;;;;;;40.65;12.65;;;10.10;91.90;;;;;;4984003;28;20448;-68
2022/01/09 12:00:34;;;;;;;40.80;13.35;;;10.10;92.10;;;;;;5005828;28;20540;-69
2022/01/09 12:03:20;;;;;;;35.47;14.52;;;10.00;92.30;;;;;;4990088;28;20105;-68
2022/01/09 12:06:12;;;;;;;37.47;14.30;;;10.10;99.90;;;;;;4990739;28;20110;-68
2022/01/09 12:08:54;;;;;;;34.80;13.88;;;10.00;92.00;;;;;;5001575;28;20083;-68
2022/01/09 12:11:20;;;;;;;38.10;14.27;;;9.90;92.60;;;;;;5006110;28;20098;-68
2022/01/09 12:13:47;;;;;;;34.95;13.93;;;9.90;92.90;;;;;;4983208;28;20251;-68
2022/01/09 12:17:01;;;;;;;37.80;14.63;;;9.90;92.70;;;;;;5006953;28;20162;-69
2022/01/09 12:19:55;;;;;;;36.17;15.18;;;10.00;92.70;;;;;;4982154;28;20418;-69
2022/01/09 12:22:46;;;;;;;41.28;14.77;;;9.90;92.70;;;;;;5006301;28;20118;-67
2022/01/09 12:25:24;;;;;;;34.55;14.20;;;9.90;92.90;;;;;;5036029;28;20176;-64
2022/01/09 12:28:17;;;;;;;39.97;14.52;;;9.90;93.20;;;;;;5037503;28;20435;-68
2022/01/09 12:30:47;;;;;;;37.40;16.30;;;9.90;92.80;;;;;;5034985;28;20555;-70
2022/01/09 12:33:16;;;;;;;44.58;15.40;;;9.90;92.90;;;;;;5043679;28;20531;-69
2022/01/09 12:35:51;;;;;;;35.90;14.60;;;9.80;93.00;;;;;;5041663;28;20135;-66
2022/01/09 12:38:19;;;;;;;34.22;14.88;;;9.70;93.40;;;;;;5040374;28;20126;-67
2022/01/09 12:40:47;;;;;;;40.25;14.63;;;9.70;93.50;;;;;;5038850;28;20171;-68
2022/01/09 12:43:14;;;;;;;40.38;14.88;;;9.70;93.80;;;;;;5041514;28;20113;-68
2022/01/09 12:45:46;;;;;;;33.15;15.00;;;9.70;93.90;;;;;;5044336;28;20140;-68
2022/01/09 12:48:31;;;;;;;32.35;14.55;;;9.70;94.00;;;;;;5042430;28;20153;-69
2022/01/09 12:51:09;;;;;;;41.13;15.70;;;9.70;93.90;;;;;;5040167;28;20085;-69
2022/01/09 12:53:48;;;;;;;35.95;14.55;;;9.70;93.90;;;;;;5040558;28;20065;-70
2022/01/09 12:56:24;;;;;;;39.10;14.40;;;9.60;93.70;;;;;;5036241;28;20112;-69